createdAt,value
2018-09-26T00:00:39.700Z,7.10
2018-09-26T00:03:15.489Z,7.00
2018-09-26T00:05:43.979Z,7.00
2018-09-26T00:08:12.519Z,7.00
2018-09-26T00:10:41.074Z,7.00
2018-09-26T00:13:09.566Z,7.00
2018-09-26T00:15:38.031Z,7.00
2018-09-26T00:18:06.816Z,7.00
2018-09-26T00:20:35.631Z,7.00
2018-09-26T00:23:04.098Z,7.00
2018-09-26T00:25:32.642Z,7.00
2018-09-26T00:28:01.075Z,6.90
2018-09-26T00:30:29.701Z,6.90
2018-09-26T00:32:58.237Z,6.80
2018-09-26T00:35:26.665Z,6.80
2018-09-26T00:37:55.434Z,6.80
2018-09-26T00:40:23.923Z,6.70
2018-09-26T00:42:52.454Z,6.70
2018-09-26T00:45:20.971Z,6.70
2018-09-26T00:47:49.448Z,6.70
2018-09-26T00:50:17.868Z,6.80
2018-09-26T00:52:46.330Z,6.70
2018-09-26T00:55:14.775Z,6.70
2018-09-26T00:57:43.218Z,6.80
2018-09-26T01:00:11.670Z,6.70
2018-09-26T01:02:40.112Z,6.70
2018-09-26T01:05:08.592Z,6.60
2018-09-26T01:07:37.079Z,6.60
2018-09-26T01:10:05.615Z,6.60
2018-09-26T01:12:34.167Z,6.60
2018-09-26T01:15:02.571Z,6.60
2018-09-26T01:17:31.103Z,6.60
2018-09-26T01:19:59.631Z,6.70
2018-09-26T01:22:28.110Z,6.70
2018-09-26T01:24:56.542Z,6.70
2018-09-26T01:27:25.054Z,6.70
2018-09-26T01:29:53.494Z,6.70
2018-09-26T01:32:22.202Z,6.70
2018-09-26T01:34:50.788Z,6.70
2018-09-26T01:37:19.277Z,6.70
2018-09-26T01:39:47.823Z,6.60
2018-09-26T01:42:16.355Z,6.70
2018-09-26T01:44:44.798Z,6.60
2018-09-26T01:47:13.316Z,6.60
2018-09-26T01:49:41.829Z,6.50
2018-09-26T01:52:10.445Z,6.50
2018-09-26T01:54:38.882Z,6.50
2018-09-26T01:57:07.478Z,6.40
2018-09-26T01:59:36.086Z,6.40
2018-09-26T02:02:04.778Z,6.40
2018-09-26T02:04:33.212Z,6.40
2018-09-26T02:07:01.798Z,6.40
2018-09-26T02:09:30.332Z,6.40
2018-09-26T02:11:58.912Z,6.30
2018-09-26T02:14:27.541Z,6.30
2018-09-26T02:16:55.984Z,6.30
2018-09-26T02:19:24.457Z,6.30
2018-09-26T02:21:52.879Z,6.30
2018-09-26T02:24:21.326Z,6.30
2018-09-26T02:26:49.862Z,6.30
2018-09-26T02:29:18.329Z,6.30
2018-09-26T02:31:46.858Z,6.20
2018-09-26T02:34:15.398Z,6.20
2018-09-26T02:36:43.886Z,6.20
2018-09-26T02:39:12.336Z,6.20
2018-09-26T02:41:40.833Z,6.10
2018-09-26T02:44:09.446Z,6.10
2018-09-26T02:46:37.863Z,6.10
2018-09-26T02:49:07.209Z,6.10
2018-09-26T02:51:37.275Z,6.10
2018-09-26T02:54:06.343Z,6.10
2018-09-26T02:56:34.807Z,6.20
2018-09-26T02:59:03.440Z,6.20
2018-09-26T03:01:32.057Z,6.10
2018-09-26T03:04:00.518Z,6.00
2018-09-26T03:06:29.040Z,5.90
2018-09-26T03:08:57.492Z,5.90
2018-09-26T03:13:54.168Z,5.90
2018-09-26T03:16:22.589Z,5.80
2018-09-26T03:18:51.054Z,5.70
2018-09-26T03:21:19.551Z,5.80
2018-09-26T03:23:48.082Z,5.80
2018-09-26T03:26:16.530Z,5.80
2018-09-26T03:28:45.023Z,5.80
2018-09-26T03:31:13.469Z,5.80
2018-09-26T03:33:42.086Z,5.80
2018-09-26T03:36:10.714Z,5.70
2018-09-26T03:38:39.210Z,5.70
2018-09-26T03:41:07.734Z,5.60
2018-09-26T03:43:36.213Z,5.60
2018-09-26T03:46:04.692Z,5.60
2018-09-26T03:48:33.169Z,5.60
2018-09-26T03:51:01.717Z,5.60
2018-09-26T03:53:30.356Z,5.60
2018-09-26T03:55:58.881Z,5.50
2018-09-26T03:58:27.333Z,5.50
2018-09-26T04:03:24.095Z,5.60
2018-09-26T04:05:52.533Z,5.50
2018-09-26T04:08:20.971Z,5.60
2018-09-26T04:10:49.438Z,5.60
2018-09-26T04:15:51.600Z,5.60
2018-09-26T04:18:20.957Z,5.70
2018-09-26T04:23:17.926Z,5.60
2018-09-26T04:25:46.699Z,5.60
2018-09-26T04:28:15.187Z,5.50
2018-09-26T04:30:43.829Z,5.50
2018-09-26T04:33:12.545Z,5.50
2018-09-26T04:38:09.587Z,5.50
2018-09-26T04:40:38.315Z,5.50
2018-09-26T04:43:06.818Z,5.60
2018-09-26T04:45:35.379Z,5.60
2018-09-26T04:48:04.095Z,5.60
2018-09-26T04:55:29.039Z,5.50
2018-09-26T04:57:57.943Z,5.50
2018-09-26T05:00:26.532Z,5.50
2018-09-26T05:05:23.273Z,5.40
2018-09-26T05:07:51.727Z,5.40
2018-09-26T05:10:20.263Z,5.40
2018-09-26T05:12:48.683Z,5.50
2018-09-26T05:15:17.471Z,5.40
2018-09-26T05:20:14.348Z,5.40
2018-09-26T05:22:42.842Z,5.50
2018-09-26T05:32:36.342Z,5.60
2018-09-26T05:35:04.761Z,5.50
2018-09-26T05:37:33.280Z,5.50
2018-09-26T05:40:01.789Z,5.60
2018-09-26T05:42:30.379Z,5.70
2018-09-26T05:44:58.811Z,5.60
2018-09-26T05:47:27.269Z,5.80
2018-09-26T05:54:52.041Z,5.90
2018-09-26T05:59:48.623Z,6.00
2018-09-26T06:02:17.210Z,6.00
2018-09-26T06:09:42.084Z,6.00
2018-09-26T06:12:10.535Z,6.10
2018-09-26T06:14:38.945Z,6.10
2018-09-26T06:17:07.382Z,6.10
2018-09-26T06:19:35.819Z,6.10
2018-09-26T06:22:04.222Z,6.10
2018-09-26T06:24:32.690Z,6.10
2018-09-26T06:27:01.592Z,6.10
2018-09-26T06:31:58.235Z,6.30
2018-09-26T06:39:23.131Z,6.80
2018-09-26T06:46:48.136Z,6.70
2018-09-26T06:49:16.626Z,6.70
2018-09-26T06:56:41.812Z,6.80
2018-09-26T06:59:10.328Z,6.90
2018-09-26T07:01:38.814Z,7.10
2018-09-26T07:16:28.574Z,7.70
2018-09-26T07:18:56.996Z,7.80
2018-09-26T07:21:25.456Z,8.00
2018-09-26T07:23:54.111Z,8.20
2018-09-26T07:28:51.306Z,8.40
2018-09-26T07:31:20.107Z,8.70
2018-09-26T07:33:49.070Z,8.80
2018-09-26T07:36:17.547Z,8.90
2018-09-26T07:41:14.746Z,9.10
2018-09-26T07:43:44.378Z,9.30
2018-09-26T07:46:13.754Z,9.40
2018-09-26T07:48:42.499Z,9.40
2018-09-26T07:51:10.937Z,9.40
2018-09-26T07:53:40.001Z,9.50
2018-09-26T07:56:08.434Z,9.50
2018-09-26T07:58:36.975Z,9.70
2018-09-26T08:01:05.563Z,9.90
2018-09-26T08:03:34.087Z,10.10
2018-09-26T08:06:02.786Z,10.10
2018-09-26T08:08:31.382Z,10.20
2018-09-26T08:11:00.176Z,10.40
2018-09-26T08:13:28.686Z,10.60
2018-09-26T08:15:57.124Z,10.90
2018-09-26T08:18:25.639Z,11.00
2018-09-26T08:20:54.048Z,11.20
2018-09-26T08:23:22.785Z,11.30
2018-09-26T08:25:51.215Z,11.50
2018-09-26T08:28:19.664Z,11.80
2018-09-26T08:30:48.337Z,12.00
2018-09-26T08:33:16.806Z,12.20
2018-09-26T08:35:45.261Z,12.10
2018-09-26T08:38:13.740Z,12.20
2018-09-26T08:40:42.356Z,12.10
2018-09-26T08:43:10.839Z,12.10
2018-09-26T08:45:39.300Z,12.00
2018-09-26T08:48:07.902Z,12.00
2018-09-26T08:50:36.343Z,11.90
2018-09-26T08:53:04.815Z,12.20
2018-09-26T08:55:33.231Z,12.40
2018-09-26T08:58:01.684Z,12.50
2018-09-26T09:00:34.877Z,12.40
2018-09-26T09:03:04.479Z,12.50
2018-09-26T09:05:32.913Z,12.70
2018-09-26T09:08:01.787Z,13.00
2018-09-26T09:10:30.252Z,13.00
2018-09-26T09:12:58.935Z,13.10
2018-09-26T09:15:28.339Z,13.20
2018-09-26T09:17:56.861Z,13.40
2018-09-26T09:20:25.483Z,13.30
2018-09-26T09:22:54.018Z,13.50
2018-09-26T09:25:22.540Z,13.40
2018-09-26T09:27:50.968Z,13.60
2018-09-26T09:30:19.383Z,13.60
2018-09-26T09:32:48.007Z,13.60
2018-09-26T09:35:16.669Z,13.70
2018-09-26T09:37:45.105Z,13.80
2018-09-26T09:40:13.647Z,13.80
2018-09-26T09:42:42.146Z,14.00
2018-09-26T09:45:10.630Z,14.10
2018-09-26T09:47:39.197Z,14.00
2018-09-26T09:50:07.811Z,14.10
2018-09-26T09:52:36.434Z,14.10
2018-09-26T09:55:05.270Z,14.10
2018-09-26T09:57:33.714Z,14.30
2018-09-26T10:00:02.209Z,14.50
2018-09-26T10:02:30.711Z,14.60
2018-09-26T10:04:59.362Z,14.50
2018-09-26T10:07:27.820Z,14.60
2018-09-26T10:09:56.432Z,14.70
2018-09-26T10:12:24.912Z,14.80
2018-09-26T10:14:53.391Z,14.80
2018-09-26T10:17:21.950Z,14.90
2018-09-26T10:19:50.625Z,14.70
2018-09-26T10:22:19.059Z,14.70
2018-09-26T10:24:47.570Z,14.60
2018-09-26T10:27:16.196Z,14.50
2018-09-26T10:29:44.672Z,14.60
2018-09-26T10:32:13.133Z,14.60
2018-09-26T10:34:41.844Z,14.80
2018-09-26T10:37:10.434Z,15.00
2018-09-26T10:39:38.945Z,15.10
2018-09-26T10:42:07.755Z,15.20
2018-09-26T10:44:36.367Z,15.30
2018-09-26T10:47:04.823Z,15.40
2018-09-26T10:49:33.331Z,15.50
2018-09-26T10:52:01.761Z,15.60
2018-09-26T10:54:30.203Z,15.70
2018-09-26T10:56:58.714Z,15.60
2018-09-26T10:59:27.132Z,15.60
2018-09-26T11:01:55.742Z,15.50
2018-09-26T11:04:24.717Z,15.60
2018-09-26T11:06:53.304Z,15.70
2018-09-26T11:09:21.762Z,15.80
2018-09-26T11:11:50.431Z,15.90
2018-09-26T11:14:18.887Z,15.90
2018-09-26T11:16:47.532Z,15.90
2018-09-26T11:19:16.031Z,16.10
2018-09-26T11:21:44.660Z,16.30
2018-09-26T11:24:13.127Z,16.50
2018-09-26T11:26:41.628Z,16.70
2018-09-26T11:29:10.175Z,16.80
2018-09-26T11:31:38.630Z,17.00
2018-09-26T11:34:07.182Z,17.20
2018-09-26T11:36:35.817Z,17.40
2018-09-26T11:39:05.366Z,17.50
2018-09-26T11:41:34.149Z,17.60
2018-09-26T11:44:02.634Z,17.70
2018-09-26T11:46:31.089Z,17.90
2018-09-26T11:48:59.518Z,18.10
2018-09-26T11:51:28.090Z,18.10
2018-09-26T11:53:56.608Z,18.20
2018-09-26T11:58:53.483Z,18.50
2018-09-26T12:01:22.047Z,18.60
2018-09-26T12:03:50.721Z,18.80
2018-09-26T12:06:19.217Z,19.00
2018-09-26T12:08:49.235Z,18.90
2018-09-26T12:11:17.667Z,19.10
2018-09-26T12:13:46.159Z,19.40
2018-09-26T12:16:14.896Z,19.40
2018-09-26T12:18:43.456Z,19.60
2018-09-26T12:21:11.878Z,19.90
2018-09-26T12:23:40.374Z,20.00
2018-09-26T12:26:08.836Z,20.00
2018-09-26T12:28:37.287Z,20.10
2018-09-26T12:31:05.827Z,20.20
2018-09-26T12:33:34.351Z,19.80
2018-09-26T12:36:03.367Z,19.60
2018-09-26T12:38:31.852Z,19.80
2018-09-26T12:41:00.267Z,20.10
2018-09-26T12:43:28.747Z,20.40
2018-09-26T12:45:57.470Z,20.70
2018-09-26T12:48:25.998Z,21.00
2018-09-26T12:50:54.504Z,21.40
2018-09-26T12:53:23.038Z,21.70
2018-09-26T12:55:51.612Z,21.80
2018-09-26T12:58:20.238Z,22.10
2018-09-26T13:00:48.855Z,22.30
2018-09-26T13:03:17.506Z,22.00
2018-09-26T13:05:45.944Z,22.00
2018-09-26T13:08:14.484Z,21.90
2018-09-26T13:10:43.055Z,21.90
2018-09-26T13:13:11.521Z,21.80
2018-09-26T13:15:40.019Z,21.80
2018-09-26T13:18:08.561Z,21.80
2018-09-26T13:20:37.598Z,21.70
2018-09-26T13:23:06.179Z,21.70
2018-09-26T13:25:34.846Z,22.00
2018-09-26T13:28:03.336Z,22.20
2018-09-26T13:30:31.795Z,22.60
2018-09-26T13:33:00.522Z,22.90
2018-09-26T13:35:29.040Z,24.00
2018-09-26T13:37:57.492Z,23.40
2018-09-26T13:40:26.617Z,23.60
2018-09-26T13:42:55.141Z,23.60
2018-09-26T13:45:23.649Z,23.50
2018-09-26T13:47:52.409Z,23.50
2018-09-26T13:50:21.105Z,23.80
2018-09-26T14:00:17.302Z,24.50
2018-09-26T14:02:47.140Z,25.00
2018-09-26T14:05:16.326Z,24.70
2018-09-26T14:07:45.326Z,24.90
2018-09-26T14:10:14.364Z,26.70
2018-09-26T14:12:43.411Z,26.70
2018-09-26T14:15:12.398Z,28.20
2018-09-26T14:17:41.422Z,29.10
2018-09-26T14:20:10.480Z,29.60
2018-09-26T14:22:39.732Z,29.70
2018-09-26T14:25:08.840Z,30.30
2018-09-26T14:27:37.924Z,30.40
2018-09-26T14:30:07.343Z,31.50
2018-09-26T14:32:36.506Z,32.00
2018-09-26T14:35:05.583Z,31.70
2018-09-26T14:37:34.842Z,32.40
2018-09-26T14:40:03.835Z,32.30
2018-09-26T14:42:32.925Z,32.50
2018-09-26T14:45:02.072Z,32.00
2018-09-26T14:54:57.483Z,32.50
2018-09-26T14:59:55.385Z,31.80
2018-09-26T15:02:24.478Z,31.50
2018-09-26T15:04:53.618Z,31.30
2018-09-26T15:17:17.664Z,31.50
2018-09-26T15:19:46.659Z,31.10
2018-09-26T15:24:44.562Z,31.00
2018-09-26T15:27:13.515Z,30.40
2018-09-26T15:29:42.686Z,29.20
2018-09-26T15:32:11.765Z,28.20
2018-09-26T15:34:40.961Z,27.50
2018-09-26T15:37:10.030Z,26.10
2018-09-26T15:42:07.765Z,24.30
2018-09-26T15:44:36.970Z,23.30
2018-09-26T15:54:29.866Z,20.90
2018-09-26T16:01:54.500Z,19.80
2018-09-26T16:04:24.808Z,19.40
2018-09-26T16:06:53.352Z,19.10
2018-09-26T16:09:21.801Z,18.90
2018-09-26T16:14:18.549Z,18.70
2018-09-26T16:16:47.251Z,18.60
2018-09-26T16:19:15.769Z,18.40
2018-09-26T16:21:44.418Z,18.20
2018-09-26T16:24:12.917Z,18.00
2018-09-26T16:26:41.573Z,17.80
2018-09-26T16:29:10.102Z,17.70
2018-09-26T16:31:38.595Z,17.50
2018-09-26T16:34:07.309Z,17.40
2018-09-26T16:36:35.924Z,17.10
2018-09-26T16:39:06.462Z,17.10
2018-09-26T16:41:35.109Z,16.90
2018-09-26T16:44:03.552Z,16.90
2018-09-26T16:46:32.000Z,16.70
2018-09-26T16:49:00.451Z,16.60
2018-09-26T16:51:29.028Z,16.40
2018-09-26T16:53:57.485Z,16.40
2018-09-26T16:56:25.962Z,16.20
2018-09-26T16:58:54.409Z,16.10
2018-09-26T17:01:22.932Z,16.00
2018-09-26T17:03:51.382Z,15.90
2018-09-26T17:06:19.830Z,15.80
2018-09-26T17:08:48.455Z,15.60
2018-09-26T17:11:16.929Z,15.50
2018-09-26T17:13:46.556Z,15.50
2018-09-26T17:16:17.580Z,15.40
2018-09-26T17:18:46.143Z,15.30
2018-09-26T17:21:14.586Z,15.30
2018-09-26T17:23:43.136Z,15.30
2018-09-26T17:26:11.592Z,15.30
2018-09-26T17:28:44.074Z,15.30
2018-09-26T17:31:17.344Z,15.20
2018-09-26T17:33:46.960Z,15.10
2018-09-26T17:36:16.504Z,15.00
2018-09-26T17:38:45.114Z,15.00
2018-09-26T17:41:13.622Z,14.90
2018-09-26T17:43:42.040Z,14.80
2018-09-26T17:46:10.479Z,14.70
2018-09-26T17:48:38.980Z,14.70
2018-09-26T17:51:07.524Z,14.70
2018-09-26T17:56:04.299Z,14.50
2018-09-26T17:58:32.956Z,14.50
2018-09-26T18:01:01.416Z,14.40
2018-09-26T18:03:29.873Z,14.30
2018-09-26T18:05:58.287Z,14.30
2018-09-26T18:08:26.974Z,14.30
2018-09-26T18:10:55.389Z,14.30
2018-09-26T18:15:57.945Z,14.20
2018-09-26T18:18:26.412Z,14.20
2018-09-26T18:23:23.953Z,14.10
2018-09-26T18:30:49.175Z,14.00
2018-09-26T18:33:17.848Z,14.00
2018-09-26T18:35:46.713Z,14.00
2018-09-26T18:40:43.590Z,13.90
2018-09-26T18:43:12.172Z,13.90
2018-09-26T18:45:40.717Z,13.90
2018-09-26T18:50:37.518Z,13.80
2018-09-26T18:53:06.199Z,13.80
2018-09-26T18:55:34.809Z,13.80
2018-09-26T19:02:59.666Z,13.70
2018-09-26T19:05:28.278Z,13.70
2018-09-26T19:07:56.752Z,13.60
2018-09-26T19:10:25.182Z,13.60
2018-09-26T19:15:21.840Z,13.50
2018-09-26T19:20:18.485Z,13.40
2018-09-26T19:22:46.953Z,13.50
2018-09-26T19:25:15.463Z,13.50
2018-09-26T19:40:06.066Z,13.20
2018-09-26T19:42:34.532Z,13.20
2018-09-26T19:45:03.071Z,13.10
2018-09-26T19:54:56.321Z,13.10
2018-09-26T20:04:49.221Z,13.00
2018-09-26T20:19:38.451Z,12.90
2018-09-26T20:27:03.975Z,12.90
2018-09-26T20:29:32.686Z,12.80
2018-09-26T20:34:29.384Z,12.80
2018-09-26T20:36:57.845Z,12.80
2018-09-26T20:39:26.415Z,12.80
2018-09-26T20:41:54.856Z,12.80
2018-09-26T20:44:23.399Z,12.70
2018-09-26T20:46:51.871Z,12.80
2018-09-26T20:49:20.526Z,12.80
2018-09-26T20:51:49.037Z,12.70
2018-09-26T20:54:17.638Z,12.70
2018-09-26T20:56:46.092Z,12.70
2018-09-26T20:59:14.553Z,12.70
2018-09-26T21:01:43.167Z,12.70
2018-09-26T21:04:11.811Z,12.70
2018-09-26T21:06:40.269Z,12.70
2018-09-26T21:09:09.958Z,12.70
2018-09-26T21:11:38.481Z,12.70
2018-09-26T21:14:07.627Z,12.70
2018-09-26T21:16:36.142Z,12.70
2018-09-26T21:19:04.613Z,12.70
2018-09-26T21:21:33.094Z,12.70
2018-09-26T21:24:01.564Z,12.70
2018-09-26T21:28:58.200Z,12.60
2018-09-26T21:31:26.640Z,12.60
2018-09-26T21:33:55.087Z,12.60
2018-09-26T21:36:23.523Z,12.60
2018-09-26T21:38:52.033Z,12.60
2018-09-26T21:41:20.881Z,12.60
2018-09-26T21:43:49.371Z,12.60
2018-09-26T21:46:17.878Z,12.60
2018-09-26T21:48:46.319Z,12.60
2018-09-26T21:51:14.786Z,12.60
2018-09-26T21:53:43.443Z,12.60
2018-09-26T21:56:11.921Z,12.50
2018-09-26T21:58:40.432Z,12.50
2018-09-26T22:01:13.128Z,12.50
2018-09-26T22:03:41.972Z,12.50
2018-09-26T22:06:10.683Z,12.50
2018-09-26T22:08:39.825Z,12.50
2018-09-26T22:11:08.637Z,12.50
2018-09-26T22:13:37.480Z,12.50
2018-09-26T22:16:06.007Z,12.50
2018-09-26T22:18:34.516Z,12.50
2018-09-26T22:21:02.969Z,12.50
2018-09-26T22:23:31.532Z,12.40
2018-09-26T22:26:00.080Z,12.40
2018-09-26T22:28:28.593Z,12.40
2018-09-26T22:30:57.184Z,12.40
2018-09-26T22:33:25.606Z,12.40
2018-09-26T22:35:54.056Z,12.30
2018-09-26T22:38:22.472Z,12.30
2018-09-26T22:40:50.914Z,12.30
2018-09-26T22:43:19.629Z,12.30
2018-09-26T22:45:48.209Z,12.30
2018-09-26T22:48:16.712Z,12.30
2018-09-26T22:50:45.275Z,12.20
2018-09-26T22:53:13.770Z,12.20
2018-09-26T22:55:45.420Z,12.20
2018-09-26T22:58:14.073Z,12.20
2018-09-26T23:00:42.711Z,12.20
2018-09-26T23:03:11.154Z,12.10
2018-09-26T23:05:39.907Z,12.10
2018-09-26T23:08:09.475Z,12.10
2018-09-26T23:10:40.519Z,12.10
2018-09-26T23:13:09.205Z,12.00
2018-09-26T23:15:37.659Z,12.00
2018-09-26T23:18:06.165Z,12.00
2018-09-26T23:20:34.643Z,12.00
2018-09-26T23:23:03.149Z,11.90
2018-09-26T23:25:31.626Z,11.90
2018-09-26T23:28:00.803Z,11.90
2018-09-26T23:30:29.250Z,11.90
2018-09-26T23:32:57.706Z,11.90
2018-09-26T23:35:26.101Z,11.90
2018-09-26T23:37:54.557Z,11.80
2018-09-26T23:40:22.984Z,11.80
2018-09-26T23:42:51.479Z,11.80
2018-09-26T23:45:19.963Z,11.80
2018-09-26T23:47:48.451Z,11.80
2018-09-26T23:50:16.915Z,11.80
2018-09-26T23:52:45.423Z,11.80
2018-09-26T23:55:13.885Z,11.80
2018-09-26T23:57:42.348Z,11.70
